Latest Weather Observations for Flinders Island Airport

IDT60801

Issued at 6:02 pm EST Monday 25 September 2017 (issued every 30 minutes, with the page automatically refreshed every 10 minutes)

About weather observations | Map of weather stations | Latest weather observations for TAS | Other Formats
Station Details ID: 099005 Name: FLINDERS ISLAND AIRPORT Lat: -40.09 Lon: 148.00 Height: 9.0 m
Data from the previous 72 hours. | See also: Recent months at Flinders Island Airport
Date/Time
EST
Temp
°C
App
Temp
°C
Dew
Point
°C
Rel
Hum
%
Delta-T
°C
Wind Press
QNH
hPa
Press
MSL
hPa
Rain since
9am
mm
Dir  Spd
km/h
Gust
km/h
Spd
kts
Gust
kts
25/06:00pm 11.0 0.7 4.9 66 2.8 W 48 57 26 31 1006.4 1006.4 0.0
25/05:30pm 11.3 0.5 6.2 71 2.4 W 52 61 28 33 1005.9 1005.9 0.0
25/05:00pm 11.6 2.0 6.3 70 2.5 W 46 59 25 32 1005.4 1005.4 0.0
25/04:30pm 11.7 0.5 5.8 67 2.7 W 54 63 29 34 1005.0 1005.0 0.0
25/04:00pm 11.8 1.7 5.9 67 2.8 W 48 65 26 35 1004.6 1004.6 0.0
25/03:30pm 12.2 1.0 6.0 66 2.9 W 54 69 29 37 1004.1 1004.1 0.0
25/03:00pm 12.3 2.2 5.7 64 3.1 W 48 59 26 32 1003.9 1003.9 0.0
25/02:30pm 12.5 2.1 6.1 65 3.0 W 50 63 27 34 1003.8 1003.8 0.0
25/02:00pm 12.5 2.1 5.9 64 3.1 W 50 61 27 33 1003.9 1003.9 0.0
25/01:30pm 12.4 2.0 6.0 65 3.0 W 50 57 27 31 1003.7 1003.7 0.0
25/01:00pm 12.5 2.2 6.3 66 3.0 W 50 61 27 33 1003.7 1003.7 0.0
25/12:30pm 12.6 1.5 6.2 65 3.0 W 54 61 29 33 1003.4 1003.4 0.0
25/12:00pm 12.4 2.7 5.6 63 3.2 W 46 56 25 30 1003.4 1003.4 0.0
25/11:30am 12.4 1.9 5.6 63 3.2 W 50 59 27 32 1003.2 1003.2 0.0
25/11:00am 12.5 2.4 5.7 63 3.2 W 48 57 26 31 1003.0 1003.0 0.0
25/10:30am 12.5 2.6 6.8 68 2.7 W 48 59 26 32 1002.9 1002.9 0.0
25/10:00am 12.0 2.4 6.1 67 2.8 W 46 56 25 30 1002.7 1002.7 0.0
25/09:30am 11.8 2.2 6.1 68 2.7 W 46 56 25 30 1002.3 1002.3 0.0
25/09:00am 11.7 2.1 6.4 70 2.5 WSW 46 54 25 29 1002.0 1002.0 17.6
25/08:30am 11.3 1.7 6.4 72 2.3 WSW 46 56 25 30 1001.5 1001.5 17.6
25/08:00am 11.1 1.1 6.3 72 2.3 WSW 48 57 26 31 1001.1 1001.1 17.6
25/07:30am 10.7 -0.2 5.7 71 2.3 WSW 52 59 28 32 1000.7 1000.7 17.6
25/07:00am 10.7 0.8 6.5 75 2.0 W 48 59 26 32 1000.4 1000.4 17.6
25/06:30am 10.4 -0.7 6.2 75 2.0 W 54 63 29 34 999.8 999.8 17.6
25/06:00am 10.5 0.3 6.8 78 1.8 W 50 61 27 33 999.5 999.5 17.6
25/05:30am 10.5 -0.5 6.6 77 1.8 W 54 65 29 35 998.7 998.7 17.6
25/05:00am 10.7 0.1 7.0 78 1.8 W 52 65 28 35 998.2 998.2 17.6
25/04:30am 10.9 0.4 7.4 79 1.7 W 52 61 28 33 997.8 997.8 17.6
25/04:00am 11.0 1.1 8.1 82 1.4 W 50 59 27 32 997.5 997.5 17.6
25/03:30am 11.2 3.1 8.8 85 1.2 W 41 57 22 31 997.1 997.1 17.6
25/03:00am 11.3 3.8 9.6 89 0.9 W 39 50 21 27 996.8 996.8 17.6
25/02:30am 11.4 4.4 10.0 91 0.7 WNW 37 50 20 27 996.3 996.3 17.6
25/02:00am 11.5 4.2 10.1 91 0.7 WNW 39 52 21 28 996.0 996.0 17.6
25/01:35am 11.5 5.1 10.6 94 0.5 WNW 35 46 19 25 996.0 996.0 17.6
25/01:30am 11.3 4.8 10.4 94 0.5 W 35 48 19 26 995.9 995.9 17.4
25/01:19am 11.3 3.5 9.9 91 0.7 W 41 57 22 31 995.8 995.8 17.4
25/01:00am 11.8 4.8 10.0 89 0.9 WNW 37 50 20 27 995.7 995.7 17.4
25/12:54am 11.7 4.7 9.9 89 0.9 W 37 50 20 27 995.6 995.6 17.4
25/12:36am 12.0 4.9 10.9 93 0.6 WNW 39 50 21 27 995.3 995.3 17.4
25/12:30am 12.0 5.3 11.1 94 0.5 WNW 37 50 20 27 995.1 995.1 17.4
25/12:00am 11.8 5.6 11.3 97 0.3 WNW 35 50 19 27 994.8 994.8 17.4
 
Date/Time
EST
Temp
°C
App
Temp
°C
Dew
Point
°C
Rel
Hum
%
Delta-T
°C
Wind Press
QNH
hPa
Press
MSL
hPa
Rain since
9am
mm
Dir  Spd
km/h
Gust
km/h
Spd
kts
Gust
kts
24/11:30pm 10.8 4.7 10.5 98 0.2 NW 33 43 18 23 995.0 995.0 17.4
24/11:10pm 10.4 4.3 9.9 97 0.3 WNW 32 48 17 26 994.6 994.6 17.2
24/11:00pm 10.2 3.8 9.4 95 0.4 WNW 33 44 18 24 995.0 995.0 15.2
24/10:38pm 11.5 6.6 11.2 98 0.2 WNW 28 50 15 27 995.0 995.0 10.2
24/10:30pm 11.4 5.6 10.9 97 0.3 WNW 32 41 17 22 994.9 994.9 9.6
24/10:27pm 11.4 5.4 10.9 97 0.3 WNW 33 43 18 23 995.1 995.1 9.2
24/10:00pm 11.9 6.0 11.0 94 0.5 NW 33 52 18 28 995.4 995.4 4.4
24/09:55pm 11.9 5.5 10.8 93 0.6 NW 35 54 19 29 995.3 995.3 4.2
24/09:52pm 12.0 5.3 10.9 93 0.6 NW 37 54 20 29 995.3 995.3 3.8
24/09:40pm 12.1 5.7 10.7 91 0.7 NW 35 54 19 29 995.2 995.2 3.0
24/09:30pm 12.3 5.1 10.5 89 0.9 NW 39 54 21 29 995.4 995.4 2.6
24/09:01pm 12.0 6.4 10.2 89 0.9 NNW 30 48 16 26 995.3 995.3 2.4
24/09:00pm 12.0 6.4 10.2 89 0.9 NNW 30 46 16 25 995.3 995.3 2.4
24/08:59pm 12.0 6.8 10.2 89 0.9 NNW 28 46 15 25 995.3 995.3 2.4
24/08:30pm 11.5 5.5 10.2 92 0.7 NNW 32 46 17 25 995.6 995.6 2.4
24/08:00pm 11.9 4.9 9.8 87 1.1 NW 37 44 20 24 995.8 995.8 2.2
24/07:37pm 12.0 5.3 9.6 85 1.2 NW 35 54 19 29 995.7 995.7 2.2
24/07:30pm 12.0 5.3 9.6 85 1.2 NW 35 48 19 26 995.7 995.7 2.2
24/07:00pm 13.0 5.6 8.3 73 2.4 NW 37 56 20 30 995.5 995.5 2.0
24/06:55pm 13.1 6.5 8.4 73 2.3 NW 33 56 18 30 995.4 995.4 2.0
24/06:30pm 12.6 5.9 9.6 82 1.5 NW 35 50 19 27 995.4 995.4 2.0
24/06:23pm 12.5 6.8 9.9 84 1.3 NW 30 50 16 27 995.3 995.3 2.0
24/06:00pm 12.7 7.6 9.3 80 1.7 WNW 26 37 14 20 995.1 995.1 1.8
24/05:34pm 12.9 6.4 8.8 76 2.1 WNW 33 52 18 28 995.0 995.0 1.8
24/05:30pm 13.0 6.1 8.7 75 2.2 WNW 35 52 19 28 995.0 995.0 1.8
24/05:00pm 13.7 8.5 9.0 73 2.4 WNW 26 37 14 20 994.7 994.7 1.8
24/04:30pm 14.1 8.1 8.7 70 2.7 WNW 30 39 16 21 994.6 994.6 1.8
24/04:00pm 14.7 7.9 9.3 70 2.8 NW 35 48 19 26 994.5 994.5 1.8
24/03:30pm 14.3 7.8 9.1 71 2.6 WNW 33 48 18 26 994.4 994.4 1.8
24/03:00pm 14.0 7.1 9.0 72 2.6 WNW 35 48 19 26 994.5 994.5 1.8
24/02:30pm 14.1 6.1 9.1 72 2.5 NW 41 52 22 28 994.7 994.7 1.8
24/02:00pm 14.2 6.3 9.2 72 2.6 NW 41 54 22 29 994.6 994.6 1.8
24/01:30pm 13.6 5.5 10.2 80 1.8 NW 43 56 23 30 994.8 994.8 1.8
24/01:00pm 13.8 6.6 10.4 80 1.8 NW 39 56 21 30 995.0 995.0 1.8
24/12:30pm 12.9 6.5 9.5 80 1.7 WNW 33 50 18 27 995.0 995.0 1.8
24/12:25pm 13.1 7.0 9.9 81 1.6 WNW 32 50 17 27 995.0 995.0 1.8
24/12:00pm 11.7 5.2 8.9 83 1.4 WNW 33 43 18 23 995.0 995.0 1.8
24/11:30am 11.2 5.0 9.3 88 1.0 WNW 32 46 17 25 994.8 994.8 1.8
24/11:00am 10.9 4.6 9.8 93 0.6 WNW 33 46 18 25 995.1 995.1 1.8
24/10:59am 10.8 4.1 9.7 93 0.6 WNW 35 46 19 25 995.1 995.1 1.8
24/10:36am 10.9 1.8 9.7 92 0.6 WNW 48 69 26 37 995.2 995.2 0.8
24/10:30am 11.5 4.2 10.1 91 0.7 WNW 39 57 21 31 995.2 995.2 0.4
24/10:01am 14.2 7.6 10.0 76 2.2 NW 35 54 19 29 994.7 994.7 0.0
24/10:00am 14.1 7.4 9.7 75 2.3 NW 35 50 19 27 994.6 994.6 0.0
24/09:30am 14.6 7.9 9.8 73 2.5 NW 35 48 19 26 994.5 994.5 0.0
24/09:00am 14.5 7.6 10.3 76 2.2 NW 37 50 20 27 994.5 994.5 0.0
24/08:30am 14.1 7.5 10.1 77 2.1 NW 35 50 19 27 994.3 994.3 0.0
24/08:00am 13.7 8.8 10.1 79 1.9 WNW 26 33 14 18 994.5 994.5 0.0
24/07:30am 13.5 8.2 9.9 79 1.9 WNW 28 39 15 21 994.6 994.6 0.0
24/07:00am 13.1 6.9 9.4 78 1.9 NW 32 43 17 23 994.7 994.7 0.0
24/06:30am 12.9 6.7 9.5 80 1.7 NW 32 48 17 26 994.9 994.9 0.0
24/06:00am 13.0 7.0 10.0 82 1.6 NW 32 48 17 26 994.8 994.8 0.0
24/05:30am 12.5 7.3 10.2 86 1.2 NW 28 35 15 19 994.7 994.7 0.0
24/05:00am 12.7 7.5 10.1 84 1.3 WNW 28 37 15 20 994.5 994.5 0.0
24/04:30am 12.6 7.3 10.0 84 1.3 NW 28 37 15 20 994.4 994.4 0.0
24/04:00am 13.0 7.0 10.0 82 1.6 WNW 32 43 17 23 994.4 994.4 0.0
24/03:30am 13.0 7.5 10.4 84 1.3 WNW 30 41 16 22 994.4 994.4 0.0
24/03:00am 12.9 7.4 10.4 85 1.3 NW 30 41 16 22 994.1 994.1 0.0
24/02:30am 12.7 8.0 10.6 87 1.1 NW 26 35 14 19 994.3 994.3 0.0
24/02:00am 13.0 7.5 10.5 85 1.3 WNW 30 43 16 23 994.3 994.3 0.0
24/01:30am 13.1 7.0 10.6 85 1.3 WNW 33 43 18 23 994.2 994.2 0.0
24/01:13am 13.1 7.7 10.8 86 1.2 WNW 30 48 16 26 994.4 994.4 0.0
24/01:00am 13.3 7.3 10.7 84 1.4 WNW 33 44 18 24 994.5 994.5 0.0
24/12:30am 13.2 7.5 11.3 88 1.0 WNW 32 43 17 23 994.7 994.7 0.0
24/12:00am 13.2 7.4 10.9 86 1.2 WNW 32 39 17 21 994.5 994.5 0.0
 
Date/Time
EST
Temp
°C
App
Temp
°C
Dew
Point
°C
Rel
Hum
%
Delta-T
°C
Wind Press
QNH
hPa
Press
MSL
hPa
Rain since
9am
mm
Dir  Spd
km/h
Gust
km/h
Spd
kts
Gust
kts
23/11:30pm 13.1 7.2 10.6 85 1.3 WNW 32 41 17 22 994.7 994.7 0.0
23/11:00pm 13.2 6.3 10.2 82 1.6 WNW 37 48 20 26 994.8 994.8 0.0
23/10:42pm 13.3 7.6 9.7 79 1.8 WNW 30 50 16 27 994.8 994.8 0.0
23/10:30pm 13.5 8.1 9.4 76 2.1 WNW 28 39 15 21 994.8 994.8 0.0
23/10:00pm 13.5 9.5 9.2 75 2.2 WNW 20 28 11 15 994.2 994.2 0.0
23/09:30pm 13.6 9.8 8.9 73 2.4 W 19 24 10 13 994.2 994.2 0.0
23/09:00pm 13.8 8.0 9.5 75 2.2 WSW 30 37 16 20 994.0 994.0 0.0
23/08:30pm 14.0 7.2 9.4 74 2.4 WSW 35 44 19 24 994.1 994.1 0.0
23/08:00pm 13.9 5.7 10.5 80 1.8 W 44 56 24 30 993.9 993.9 0.0
23/07:53pm 14.0 5.7 11.3 84 1.4 W 46 59 25 32 993.8 993.8 0.0
23/07:30pm 14.9 6.9 10.3 74 2.4 W 43 56 23 30 991.7 991.7 0.0
23/07:16pm 17.3 10.3 8.4 56 4.6 WNW 35 59 19 32 990.7 990.7 0.0
23/07:00pm 21.4 14.9 6.5 38 7.6 NW 30 39 16 21 988.8 988.8 0.0
23/06:30pm 23.8 17.9 5.7 31 9.2 NW 26 35 14 19 987.9 987.9 0.0
23/06:00pm 21.5 19.0 6.6 38 7.7 WSW 9 13 5 7 987.5 987.5 0.0
23/05:30pm 21.4 19.1 7.3 40 7.3 NE 9 11 5 6 987.5 987.5 0.0
23/05:00pm 21.8 19.3 8.0 41 7.3 NNE 11 19 6 10 987.5 987.5 0.0
23/04:30pm 21.8 19.1 9.0 44 6.8 S 13 20 7 11 987.8 987.8 0.0
23/04:00pm 23.0 19.0 5.0 31 9.1 NE 15 28 8 15 988.1 988.1 0.0
23/03:30pm 23.7 20.5 6.9 34 8.7 NE 13 22 7 12 988.3 988.3 0.0
23/03:00pm 23.4 22.5 10.5 44 7.2 ESE 6 13 3 7 989.0 989.0 0.0
23/02:30pm 21.9 20.1 9.4 45 6.7 ESE 9 11 5 6 990.3 990.3 0.0
23/02:00pm 21.1 19.0 9.7 48 6.2 E 11 13 6 7 991.3 991.3 0.0
23/01:30pm 20.3 19.2 10.1 52 5.5 SE 6 11 3 6 992.5 992.5 0.0
23/01:00pm 18.4 16.3 8.1 51 5.3 SSW 9 13 5 7 993.4 993.4 0.0
23/12:30pm 19.2 16.9 7.6 47 5.9 SW 9 17 5 9 994.0 994.0 0.0
23/12:00pm 19.9 17.4 8.3 47 6.1 W 11 17 6 9 994.7 994.7 0.0
23/11:30am 18.8 15.8 7.9 49 5.6 SSW 13 22 7 12 995.1 995.1 0.0
23/11:00am 19.1 13.1 8.7 51 5.5 W 30 48 16 26 996.5 996.5 0.0
23/10:52am 18.9 12.7 9.4 54 5.0 SW 32 48 17 26 996.8 996.8 0.0
23/10:30am 23.4 19.0 7.5 36 8.3 NNE 20 30 11 16 995.6 995.6 0.0
23/10:00am 23.4 19.0 7.5 36 8.4 NNE 20 26 11 14 996.2 996.2 0.0
23/09:30am 23.7 18.7 4.6 29 9.5 N 20 32 11 17 997.3 997.3 0.0
23/09:00am 23.2 16.2 4.2 29 9.4 N 30 43 16 23 998.0 998.0 0.0
23/08:30am 22.4 15.2 4.9 32 8.7 N 32 52 17 28 998.3 998.3 0.0
23/08:22am 21.6 15.8 8.1 42 7.1 NNE 28 52 15 28 998.3 998.3 0.0
23/08:00am 19.3 13.0 8.9 51 5.5 NNE 32 37 17 20 998.2 998.2 0.0
23/07:30am 17.5 12.4 12.0 70 3.0 NE 30 35 16 19 998.3 998.3 0.0
23/07:00am 17.0 11.4 11.5 70 3.0 NE 32 37 17 20 998.4 998.4 0.0
23/06:38am 15.5 11.9 11.9 79 2.0 NE 22 37 12 20 998.5 998.5 0.0
23/06:30am 15.4 14.6 12.9 85 1.4 ENE 9 15 5 8 998.9 998.9 0.0
23/06:00am 13.6 12.0 12.8 95 0.4 ESE 13 17 7 9 999.7 999.7 0.0
23/05:30am 13.8 12.6 12.7 93 0.6 SE 11 19 6 10 1000.2 1000.2 0.0
23/05:00am 14.3 13.6 13.2 93 0.6 ESE 9 13 5 7 1000.3 1000.3 0.0
23/04:30am 13.4 12.4 12.3 93 0.6 E 9 15 5 8 1000.8 1000.8 0.0
23/04:00am 14.0 12.5 13.2 95 0.4 ENE 13 26 7 14 1000.7 1000.7 0.0
23/03:30am 13.0 12.0 12.2 95 0.4 ESE 9 13 5 7 1002.4 1002.4 0.0
23/03:00am 13.3 11.6 12.4 94 0.5 E 13 22 7 12 1002.6 1002.6 0.0
23/02:30am 13.5 12.1 12.2 92 0.7 E 11 19 6 10 1003.1 1003.1 0.0
23/02:00am 13.2 11.0 12.1 93 0.6 E 15 20 8 11 1003.3 1003.3 0.0
23/01:30am 13.1 11.5 11.7 91 0.7 E 11 17 6 9 1004.2 1004.2 0.0
23/01:00am 13.5 10.8 11.7 89 1.0 ENE 17 26 9 14 1004.7 1004.7 0.0
23/12:30am 14.1 11.8 11.6 85 1.3 NE 15 24 8 13 1005.2 1005.2 0.0
23/12:00am 13.6 9.9 11.5 87 1.1 ENE 22 32 12 17 1004.4 1004.4 0.0
 
Date/Time
EST
Temp
°C
App
Temp
°C
Dew
Point
°C
Rel
Hum
%
Delta-T
°C
Wind Press
QNH
hPa
Press
MSL
hPa
Rain since
9am
mm
Dir  Spd
km/h
Gust
km/h
Spd
kts
Gust
kts
22/11:30pm 12.7 11.2 10.4 86 1.2 E 9 11 5 6 1006.0 1006.0 0.0
22/11:00pm 13.2 9.6 10.4 83 1.5 NE 20 32 11 17 1006.7 1006.7 0.0
22/10:30pm 13.5 9.4 10.1 80 1.8 NE 22 28 12 15 1006.7 1006.7 0.0
22/10:00pm 13.2 11.4 9.6 79 1.8 ENE 9 20 5 11 1007.0 1007.0 0.0
22/09:30pm 12.9 11.4 8.4 74 2.2 E 6 13 3 7 1007.2 1007.2 0.0
22/09:00pm 12.2 10.2 8.7 79 1.7 ENE 9 15 5 8 1007.4 1007.4 0.0
22/08:30pm 10.6 8.6 6.9 78 1.7 ENE 7 11 4 6 1007.4 1007.4 0.0
22/08:00pm 9.8 8.0 7.1 83 1.3 NE 6 7 3 4 1007.5 1007.5 0.0
22/07:30pm 10.4 8.6 8.0 85 1.2 NE 7 9 4 5 1007.7 1007.7 0.0
22/07:00pm 10.6 8.8 8.0 84 1.3 ENE 7 11 4 6 1007.5 1007.5 0.0
22/06:30pm 10.9 9.2 8.3 84 1.3 ENE 7 11 4 6 1007.6 1007.6 0.0

Other Formats:

Comma delimited format used in spreadsheet applications
http://www.bom.gov.au/fwo/IDT60801/IDT60801.94980.axf

JavaScript Object Notation format (JSON) in row-major order
http://www.bom.gov.au/fwo/IDT60801/IDT60801.94980.json